Time;durP1;ratioP1;P1;durP2;ratioP2;P2;SDS_P1;SDS_P2;PMS_P1;PMS_P2;Temp;Humidity;BMP_temperature;BMP_pressure;BME280_temperature;BME280_humidity;BME280_pressure;Samples;Min_cycle;Max_cycle;Signal;HPM_P1;HPM_P2
2022/09/24 00:02:17;;;;;;;6.80;4.20;;;;;;;;;;107058;1302;22568;-34
2022/09/24 00:04:47;;;;;;;6.80;4.30;;;;;;;;;;107066;1298;22524;-34
2022/09/24 00:07:16;;;;;;;7.20;4.40;;;;;;;;;;107247;1298;22552;-35
2022/09/24 00:09:45;;;;;;;7.00;4.50;;;;;;;;;;107053;1302;22724;-34
2022/09/24 00:12:15;;;;;;;7.00;4.60;;;;;;;;;;107189;1301;24180;-34
2022/09/24 00:14:46;;;;;;;6.40;4.20;;;;;;;;;;107145;1298;22517;-34
2022/09/24 00:17:15;;;;;;;7.00;4.50;;;;;;;;;;106835;1296;22603;-34
2022/09/24 00:19:44;;;;;;;6.80;4.20;;;;;;;;;;107069;1298;22572;-35
2022/09/24 00:22:13;;;;;;;6.40;4.60;;;;;;;;;;107083;1298;22499;-35
2022/09/24 00:27:29;;;;;;;6.40;4.20;;;;;;;;;;107112;1299;22527;-34
2022/09/24 00:29:58;;;;;;;6.60;4.10;;;;;;;;;;106986;1298;220075;-34
2022/09/24 00:32:27;;;;;;;6.50;4.40;;;;;;;;;;107156;1298;22580;-34
2022/09/24 00:34:57;;;;;;;7.70;4.60;;;;;;;;;;107183;1301;25347;-34
2022/09/24 00:37:27;;;;;;;6.40;4.30;;;;;;;;;;107010;1298;22514;-34
2022/09/24 00:39:56;;;;;;;6.40;4.50;;;;;;;;;;107030;1298;22526;-34
2022/09/24 00:42:28;;;;;;;6.60;4.50;;;;;;;;;;107045;1302;22529;-34
2022/09/24 00:44:57;;;;;;;7.30;4.20;;;;;;;;;;106761;1301;23166;-34
2022/09/24 00:47:29;;;;;;;6.50;4.30;;;;;;;;;;107105;1295;22544;-34
2022/09/24 00:50:04;;;;;;;6.30;4.30;;;;;;;;;;107146;1295;23066;-34
2022/09/24 00:52:34;;;;;;;6.30;4.00;;;;;;;;;;107170;1301;22593;-34
2022/09/24 00:55:04;;;;;;;6.30;4.40;;;;;;;;;;107174;1295;23053;-34
2022/09/24 00:57:34;;;;;;;6.70;4.50;;;;;;;;;;107064;1294;23041;-34
2022/09/24 01:00:04;;;;;;;6.60;4.50;;;;;;;;;;107004;1300;23291;-34
2022/09/24 01:02:36;;;;;;;6.30;4.50;;;;;;;;;;107046;1302;22558;-34
2022/09/24 01:05:05;;;;;;;7.00;4.10;;;;;;;;;;107050;1298;23917;-34
2022/09/24 01:07:35;;;;;;;6.50;4.00;;;;;;;;;;107075;1298;22530;-34
2022/09/24 01:10:06;;;;;;;7.30;4.40;;;;;;;;;;107174;1300;22582;-34
2022/09/24 01:12:40;;;;;;;8.90;4.50;;;;;;;;;;107175;1299;22566;-34
2022/09/24 01:15:16;;;;;;;8.70;4.00;;;;;;;;;;107156;1301;22815;-34
2022/09/24 01:17:51;;;;;;;8.50;4.70;;;;;;;;;;107076;1294;23771;-34
2022/09/24 01:20:36;;;;;;;8.80;4.40;;;;;;;;;;107041;1302;22633;-34
2022/09/24 01:23:27;;;;;;;8.00;4.50;;;;;;;;;;107034;1301;25193;-34
2022/09/24 01:26:03;;;;;;;8.70;4.70;;;;;;;;;;107030;1294;22590;-34
2022/09/24 01:28:37;;;;;;;6.60;4.30;;;;;;;;;;107106;1297;22551;-34
2022/09/24 01:31:10;;;;;;;7.20;4.40;;;;;;;;;;107135;1294;25216;-34
2022/09/24 01:33:39;;;;;;;7.50;4.60;;;;;;;;;;107189;1295;22768;-34
2022/09/24 01:36:09;;;;;;;7.40;4.80;;;;;;;;;;107172;1298;22625;-34
2022/09/24 01:38:40;;;;;;;8.30;4.80;;;;;;;;;;107036;1301;22767;-34
2022/09/24 01:41:11;;;;;;;8.10;4.70;;;;;;;;;;107051;1302;22549;-34
2022/09/24 01:43:40;;;;;;;6.80;4.30;;;;;;;;;;107042;1302;22624;-34
2022/09/24 01:46:11;;;;;;;6.40;4.50;;;;;;;;;;107038;1294;22797;-33
2022/09/24 01:48:41;;;;;;;7.00;4.80;;;;;;;;;;107070;1301;22542;-35
2022/09/24 01:51:13;;;;;;;7.10;4.10;;;;;;;;;;107159;1298;23718;-35
2022/09/24 01:53:49;;;;;;;8.00;4.70;;;;;;;;;;107186;1298;22557;-34
2022/09/24 01:56:23;;;;;;;7.10;4.50;;;;;;;;;;107178;1299;22536;-34
2022/09/24 01:58:55;;;;;;;7.90;4.90;;;;;;;;;;107080;1296;23051;-34
2022/09/24 02:01:26;;;;;;;6.70;4.40;;;;;;;;;;107059;1302;22562;-33
2022/09/24 02:03:57;;;;;;;6.80;4.40;;;;;;;;;;107095;1298;22508;-34
2022/09/24 02:06:30;;;;;;;6.40;4.60;;;;;;;;;;107084;1302;23741;-34
2022/09/24 02:09:00;;;;;;;7.70;4.90;;;;;;;;;;107142;1300;24238;-34
2022/09/24 02:11:31;;;;;;;7.00;4.40;;;;;;;;;;107212;1296;22550;-34
2022/09/24 02:14:03;;;;;;;6.40;4.80;;;;;;;;;;107161;1293;22557;-34
2022/09/24 02:16:36;;;;;;;6.70;4.60;;;;;;;;;;107156;1301;22552;-34
2022/09/24 02:19:05;;;;;;;6.30;4.60;;;;;;;;;;107070;1295;22694;-34
2022/09/24 02:21:38;;;;;;;6.60;4.70;;;;;;;;;;107061;1302;22550;-34
2022/09/24 02:24:11;;;;;;;6.90;4.70;;;;;;;;;;107079;1302;22701;-34
2022/09/24 02:26:40;;;;;;;6.50;4.70;;;;;;;;;;107056;1302;22565;-34
2022/09/24 02:29:10;;;;;;;7.20;4.50;;;;;;;;;;107091;1298;22533;-34
2022/09/24 02:31:41;;;;;;;8.30;5.00;;;;;;;;;;107190;1290;22576;-34
2022/09/24 02:34:24;;;;;;;7.60;4.90;;;;;;;;;;107063;1295;23132;-34
2022/09/24 02:36:54;;;;;;;7.80;4.90;;;;;;;;;;107187;1298;22542;-34
2022/09/24 02:39:23;;;;;;;6.80;4.60;;;;;;;;;;107074;1298;25142;-34
2022/09/24 02:41:54;;;;;;;7.40;4.80;;;;;;;;;;107061;1298;22963;-34
2022/09/24 02:44:23;;;;;;;7.10;4.60;;;;;;;;;;107061;1298;22626;-34
2022/09/24 02:46:52;;;;;;;6.60;5.00;;;;;;;;;;107065;1295;22570;-34
2022/09/24 02:49:21;;;;;;;6.30;4.40;;;;;;;;;;107108;1298;22546;-34
2022/09/24 02:51:50;;;;;;;7.50;5.00;;;;;;;;;;107188;1294;23117;-34
2022/09/24 02:54:20;;;;;;;6.60;4.50;;;;;;;;;;107180;1301;22759;-34
2022/09/24 02:56:50;;;;;;;7.60;4.80;;;;;;;;;;107183;1293;23179;-34
2022/09/24 02:59:19;;;;;;;7.40;4.90;;;;;;;;;;107079;1294;22586;-34
2022/09/24 03:01:49;;;;;;;6.70;4.90;;;;;;;;;;107082;1298;23792;-34
2022/09/24 03:04:18;;;;;;;6.90;4.90;;;;;;;;;;107071;1298;23733;-34
2022/09/24 03:06:47;;;;;;;7.80;5.20;;;;;;;;;;107075;1295;22564;-34
2022/09/24 03:09:17;;;;;;;8.20;5.20;;;;;;;;;;106924;1301;22511;-34
2022/09/24 03:11:47;;;;;;;7.00;4.80;;;;;;;;;;107170;1298;22761;-34
2022/09/24 03:14:17;;;;;;;7.90;5.00;;;;;;;;;;107201;1295;25217;-34
2022/09/24 03:16:46;;;;;;;7.70;4.70;;;;;;;;;;106870;1301;23770;-34
2022/09/24 03:19:16;;;;;;;7.70;5.40;;;;;;;;;;107114;1301;23785;-34
2022/09/24 03:21:46;;;;;;;7.30;5.40;;;;;;;;;;107070;1298;22567;-34
2022/09/24 03:24:15;;;;;;;7.10;5.30;;;;;;;;;;107042;1295;23094;-34
2022/09/24 03:26:44;;;;;;;7.60;5.20;;;;;;;;;;107106;1302;22681;-35
2022/09/24 03:29:14;;;;;;;7.10;4.90;;;;;;;;;;107002;1298;22511;-33
2022/09/24 03:31:43;;;;;;;7.60;5.50;;;;;;;;;;107144;1297;22543;-33
2022/09/24 03:34:12;;;;;;;6.40;5.10;;;;;;;;;;107149;1297;22573;-33
2022/09/24 03:36:41;;;;;;;7.30;5.00;;;;;;;;;;107175;1289;22599;-33
2022/09/24 03:39:10;;;;;;;7.10;4.80;;;;;;;;;;107152;1298;22885;-33
2022/09/24 03:41:40;;;;;;;7.60;5.40;;;;;;;;;;106871;1295;22551;-32
2022/09/24 03:44:09;;;;;;;7.00;5.20;;;;;;;;;;106872;1303;22630;-33
2022/09/24 03:46:40;;;;;;;7.90;5.60;;;;;;;;;;107043;1302;22676;-33
2022/09/24 03:49:12;;;;;;;6.30;4.80;;;;;;;;;;107076;1302;22645;-33
2022/09/24 03:51:41;;;;;;;8.50;5.10;;;;;;;;;;107127;1299;22488;-33
2022/09/24 03:54:11;;;;;;;7.20;5.30;;;;;;;;;;107165;1299;22582;-33
2022/09/24 03:56:40;;;;;;;7.40;5.30;;;;;;;;;;107169;1295;23057;-33
2022/09/24 03:59:11;;;;;;;7.50;5.60;;;;;;;;;;107132;1298;22495;-33
2022/09/24 04:01:40;;;;;;;7.70;5.60;;;;;;;;;;107007;1294;25203;-33
2022/09/24 04:04:14;;;;;;;7.60;5.70;;;;;;;;;;107032;1302;25979;-33
2022/09/24 04:06:43;;;;;;;9.00;5.90;;;;;;;;;;107059;1297;25173;-33
2022/09/24 04:09:12;;;;;;;7.70;5.40;;;;;;;;;;107031;1300;25344;-31
2022/09/24 04:11:42;;;;;;;7.70;5.40;;;;;;;;;;107119;1301;25349;-32
2022/09/24 04:14:11;;;;;;;7.60;5.30;;;;;;;;;;107047;1302;22557;-32
2022/09/24 04:16:40;;;;;;;7.50;5.00;;;;;;;;;;107144;1297;22800;-32
2022/09/24 04:19:10;;;;;;;7.50;5.50;;;;;;;;;;107127;1293;23914;-31
2022/09/24 04:21:39;;;;;;;7.00;5.40;;;;;;;;;;107016;1295;23178;-31
2022/09/24 04:24:09;;;;;;;7.30;5.60;;;;;;;;;;107019;1295;23382;-32
2022/09/24 04:26:38;;;;;;;7.60;5.60;;;;;;;;;;107033;1298;22582;-32
2022/09/24 04:29:07;;;;;;;7.00;5.50;;;;;;;;;;107077;1291;22551;-32
2022/09/24 04:31:37;;;;;;;8.00;5.70;;;;;;;;;;107072;1293;23051;-32
2022/09/24 04:34:06;;;;;;;8.00;5.90;;;;;;;;;;107156;1301;25339;-32
2022/09/24 04:36:35;;;;;;;8.00;6.30;;;;;;;;;;107178;1297;22969;-32
2022/09/24 04:39:05;;;;;;;6.90;5.30;;;;;;;;;;107153;1301;22953;-32
2022/09/24 04:41:34;;;;;;;7.60;5.50;;;;;;;;;;107037;1301;22585;-32
2022/09/24 04:44:04;;;;;;;7.40;5.70;;;;;;;;;;107033;1295;22659;-31
2022/09/24 04:46:33;;;;;;;7.90;6.10;;;;;;;;;;107033;1302;22547;-32
2022/09/24 04:49:03;;;;;;;7.60;5.60;;;;;;;;;;107034;1296;22563;-32
2022/09/24 04:51:35;;;;;;;7.70;5.90;;;;;;;;;;107051;1298;22550;-32
2022/09/24 04:54:04;;;;;;;8.00;5.90;;;;;;;;;;107166;1295;22541;-34
2022/09/24 04:56:33;;;;;;;7.30;6.10;;;;;;;;;;107143;1295;22546;-34
2022/09/24 04:59:03;;;;;;;8.00;5.90;;;;;;;;;;107155;1299;22518;-34
2022/09/24 05:01:32;;;;;;;7.80;6.10;;;;;;;;;;107115;1301;23770;-34
2022/09/24 05:04:04;;;;;;;8.30;5.80;;;;;;;;;;107045;1302;25207;-34
2022/09/24 05:06:33;;;;;;;7.20;6.00;;;;;;;;;;107039;1302;22564;-34
2022/09/24 05:09:02;;;;;;;8.40;6.00;;;;;;;;;;107070;1301;22932;-34
2022/09/24 05:11:31;;;;;;;7.40;5.60;;;;;;;;;;107005;1295;23646;-34
2022/09/24 05:14:00;;;;;;;7.90;6.20;;;;;;;;;;107181;1301;22601;-34
2022/09/24 05:16:30;;;;;;;8.50;6.10;;;;;;;;;;107150;1294;23159;-34
2022/09/24 05:19:00;;;;;;;8.40;6.50;;;;;;;;;;107156;1294;22595;-34
2022/09/24 05:21:29;;;;;;;7.30;6.00;;;;;;;;;;107107;1294;23199;-34
2022/09/24 05:23:59;;;;;;;8.40;6.40;;;;;;;;;;107031;1298;22538;-34
2022/09/24 05:29:15;;;;;;;8.10;6.30;;;;;;;;;;107047;1295;22553;-34
2022/09/24 05:31:44;;;;;;;8.50;6.00;;;;;;;;;;107070;1297;22666;-34
2022/09/24 05:34:14;;;;;;;7.80;6.10;;;;;;;;;;107166;1301;24160;-34
2022/09/24 05:36:43;;;;;;;9.20;6.50;;;;;;;;;;107210;1301;22595;-34
2022/09/24 05:39:13;;;;;;;8.90;6.60;;;;;;;;;;107175;1301;25324;-34
2022/09/24 05:41:42;;;;;;;8.70;6.70;;;;;;;;;;106828;1301;24153;-34
2022/09/24 05:44:12;;;;;;;8.80;6.50;;;;;;;;;;107012;1295;29519;-34
2022/09/24 05:46:41;;;;;;;7.50;6.30;;;;;;;;;;107068;1302;22508;-34
2022/09/24 05:49:11;;;;;;;9.10;6.70;;;;;;;;;;107055;1298;22525;-35
2022/09/24 05:51:40;;;;;;;9.90;6.60;;;;;;;;;;107040;1302;22558;-34
2022/09/24 05:54:10;;;;;;;9.60;6.50;;;;;;;;;;107118;1298;22562;-34
2022/09/24 05:56:39;;;;;;;10.00;6.20;;;;;;;;;;106881;1297;22558;-34
2022/09/24 05:59:08;;;;;;;8.90;6.90;;;;;;;;;;107170;1301;22560;-34
2022/09/24 06:01:37;;;;;;;9.50;6.60;;;;;;;;;;107148;1289;22554;-34
2022/09/24 06:04:08;;;;;;;8.90;6.40;;;;;;;;;;107040;1301;23690;-34
2022/09/24 06:06:38;;;;;;;9.10;6.40;;;;;;;;;;107042;1302;22598;-34
2022/09/24 06:09:08;;;;;;;8.20;6.60;;;;;;;;;;107022;1298;22945;-34
2022/09/24 06:11:39;;;;;;;8.70;6.10;;;;;;;;;;107031;1295;22672;-35
2022/09/24 06:14:10;;;;;;;8.80;6.80;;;;;;;;;;107066;1301;22566;-35
2022/09/24 06:16:39;;;;;;;8.20;6.00;;;;;;;;;;107120;1295;22523;-35
2022/09/24 06:19:09;;;;;;;9.10;6.70;;;;;;;;;;107056;1296;22559;-34
2022/09/24 06:21:39;;;;;;;8.30;6.60;;;;;;;;;;107193;1297;22603;-34
2022/09/24 06:24:09;;;;;;;7.50;6.10;;;;;;;;;;107010;1298;25407;-34
2022/09/24 06:26:38;;;;;;;7.50;6.30;;;;;;;;;;107044;1298;22596;-34
2022/09/24 06:29:08;;;;;;;8.30;6.60;;;;;;;;;;107068;1302;22549;-34
2022/09/24 06:31:37;;;;;;;8.10;6.30;;;;;;;;;;107050;1291;22577;-34
2022/09/24 06:34:06;;;;;;;7.60;5.70;;;;;;;;;;107086;1301;25341;-34
2022/09/24 06:36:35;;;;;;;8.40;6.40;;;;;;;;;;107146;1298;22717;-34
2022/09/24 06:39:05;;;;;;;7.90;6.10;;;;;;;;;;107155;1301;22691;-34
2022/09/24 06:41:34;;;;;;;7.40;6.00;;;;;;;;;;107175;1297;22505;-34
2022/09/24 06:44:03;;;;;;;9.40;6.40;;;;;;;;;;107043;1295;22523;-32
2022/09/24 06:46:33;;;;;;;7.90;6.20;;;;;;;;;;106998;1298;25208;-32
2022/09/24 06:49:02;;;;;;;7.70;6.40;;;;;;;;;;107021;1291;23026;-31
2022/09/24 06:51:31;;;;;;;8.00;6.00;;;;;;;;;;107007;1295;23897;-32
2022/09/24 06:54:01;;;;;;;7.60;6.30;;;;;;;;;;107041;1301;22558;-32
2022/09/24 06:56:30;;;;;;;7.90;6.10;;;;;;;;;;107165;1297;25214;-32
2022/09/24 06:58:59;;;;;;;8.20;6.20;;;;;;;;;;107096;1297;23032;-34
2022/09/24 07:01:31;;;;;;;7.00;5.70;;;;;;;;;;107138;1293;22788;-32
2022/09/24 07:04:01;;;;;;;7.50;6.20;;;;;;;;;;106908;1302;22676;-36
2022/09/24 07:07:28;;;;;;;8.00;6.30;;;;;;;;;;107005;1302;22545;-35
2022/09/24 07:09:21;;;;;;;7.80;6.00;;;;;;;;;;106989;1295;23813;-36
2022/09/24 07:11:51;;;;;;;7.50;5.60;;;;;;;;;;107018;1302;22547;-36
2022/09/24 07:14:21;;;;;;;7.50;6.10;;;;;;;;;;106937;1295;23127;-32
2022/09/24 07:16:51;;;;;;;10.60;6.10;;;;;;;;;;107056;1294;22594;-32
2022/09/24 07:19:20;;;;;;;12.50;6.70;;;;;;;;;;107059;1294;23319;-31
2022/09/24 07:21:49;;;;;;;10.40;6.10;;;;;;;;;;107025;1299;22776;-33
2022/09/24 07:24:18;;;;;;;8.40;5.80;;;;;;;;;;107016;1297;22516;-32
2022/09/24 07:26:48;;;;;;;10.10;6.20;;;;;;;;;;107041;1299;22609;-32
2022/09/24 07:29:17;;;;;;;10.30;6.10;;;;;;;;;;107090;1295;22660;-35
2022/09/24 07:31:46;;;;;;;10.30;6.20;;;;;;;;;;107062;1302;22552;-35
2022/09/24 07:34:15;;;;;;;8.90;6.00;;;;;;;;;;106961;1299;25171;-36
2022/09/24 07:36:45;;;;;;;8.90;6.60;;;;;;;;;;107070;1297;22758;-35
2022/09/24 07:39:16;;;;;;;8.30;5.80;;;;;;;;;;107055;1293;23355;-34
2022/09/24 07:41:45;;;;;;;8.00;5.90;;;;;;;;;;107059;1301;22684;-35
2022/09/24 07:44:16;;;;;;;9.50;6.30;;;;;;;;;;107008;1301;22533;-34
2022/09/24 07:46:48;;;;;;;10.70;6.50;;;;;;;;;;107072;1302;22530;-33
2022/09/24 07:49:17;;;;;;;11.30;6.20;;;;;;;;;;107050;1298;22508;-34
2022/09/24 07:51:47;;;;;;;9.50;6.50;;;;;;;;;;107026;1294;22657;-35
2022/09/24 07:54:16;;;;;;;9.10;6.20;;;;;;;;;;107055;1302;22541;-35
2022/09/24 07:56:46;;;;;;;10.10;6.20;;;;;;;;;;107086;1298;25162;-35
2022/09/24 07:59:16;;;;;;;9.90;6.50;;;;;;;;;;107087;1298;22734;-34
2022/09/24 08:01:45;;;;;;;9.70;6.60;;;;;;;;;;107110;1298;22592;-34
2022/09/24 08:04:17;;;;;;;9.40;6.00;;;;;;;;;;106917;1294;23078;-34
2022/09/24 08:06:47;;;;;;;9.30;5.90;;;;;;;;;;106992;1295;23102;-34
2022/09/24 08:09:17;;;;;;;8.20;5.70;;;;;;;;;;107047;1294;22603;-34
2022/09/24 08:11:48;;;;;;;8.40;5.80;;;;;;;;;;107021;1298;22708;-34
2022/09/24 08:14:20;;;;;;;8.50;6.10;;;;;;;;;;107040;1302;25198;-35
2022/09/24 08:16:49;;;;;;;9.80;6.50;;;;;;;;;;107117;1298;23732;-34
2022/09/24 08:19:18;;;;;;;8.90;5.50;;;;;;;;;;106862;1301;25367;-34
2022/09/24 08:21:48;;;;;;;9.20;5.90;;;;;;;;;;107149;1300;22549;-34
2022/09/24 08:24:17;;;;;;;9.10;5.70;;;;;;;;;;107152;1300;22746;-34
2022/09/24 08:26:46;;;;;;;9.00;6.10;;;;;;;;;;106997;1298;22557;-34
2022/09/24 08:29:17;;;;;;;8.40;6.00;;;;;;;;;;106920;1294;135825;-34
2022/09/24 08:31:47;;;;;;;9.70;5.90;;;;;;;;;;106983;1298;22514;-34
2022/09/24 08:34:16;;;;;;;12.70;6.40;;;;;;;;;;107023;1302;22561;-34
2022/09/24 08:36:46;;;;;;;10.70;5.40;;;;;;;;;;107073;1297;22577;-34
2022/09/24 08:39:15;;;;;;;11.70;6.50;;;;;;;;;;107151;1301;22497;-34
2022/09/24 08:41:50;;;;;;;10.60;5.80;;;;;;;;;;107050;1295;34083;-34
2022/09/24 08:47:21;;;;;;;12.90;6.50;;;;;;;;;;106915;1293;32520;-32
2022/09/24 08:47:23;;;;;;;12.40;6.10;;;;;;;;;;106818;1298;23718;-33
2022/09/24 08:49:55;;;;;;;12.30;6.30;;;;;;;;;;106813;1295;23240;-33
2022/09/24 08:52:30;;;;;;;12.00;6.20;;;;;;;;;;106751;1296;23148;-33
2022/09/24 08:55:02;;;;;;;10.90;6.30;;;;;;;;;;106854;1303;22544;-35
2022/09/24 08:57:34;;;;;;;11.80;6.20;;;;;;;;;;106947;1295;23456;-32
2022/09/24 09:00:06;;;;;;;10.70;6.00;;;;;;;;;;107033;1294;22542;-32
2022/09/24 09:02:41;;;;;;;12.70;6.10;;;;;;;;;;107017;1298;22517;-32
2022/09/24 09:05:15;;;;;;;11.30;6.10;;;;;;;;;;107010;1294;22993;-32
2022/09/24 09:07:48;;;;;;;11.30;5.70;;;;;;;;;;106846;1302;22553;-32
2022/09/24 09:10:26;;;;;;;11.70;5.80;;;;;;;;;;106884;1299;22540;-32
2022/09/24 09:12:57;;;;;;;11.10;5.40;;;;;;;;;;106648;1304;23864;-32
2022/09/24 09:15:28;;;;;;;10.30;5.70;;;;;;;;;;106836;1303;22702;-32
2022/09/24 09:17:59;;;;;;;12.00;5.90;;;;;;;;;;106909;1301;22696;-32
2022/09/24 09:20:35;;;;;;;10.50;5.60;;;;;;;;;;106921;1302;22593;-32
2022/09/24 09:23:07;;;;;;;11.90;5.50;;;;;;;;;;106908;1301;22584;-32
2022/09/24 09:25:36;;;;;;;9.30;5.60;;;;;;;;;;106941;1294;23790;-32
2022/09/24 09:28:13;;;;;;;9.90;5.10;;;;;;;;;;106830;1294;22857;-32
2022/09/24 09:30:45;;;;;;;8.90;4.90;;;;;;;;;;106902;1295;22509;-32
2022/09/24 09:33:19;;;;;;;7.50;5.00;;;;;;;;;;106957;1303;22574;-32
2022/09/24 09:35:51;;;;;;;8.00;5.10;;;;;;;;;;106706;1295;34063;-32
2022/09/24 09:38:22;;;;;;;8.50;5.20;;;;;;;;;;106590;1294;34234;-32
2022/09/24 09:40:56;;;;;;;7.20;4.40;;;;;;;;;;106702;1294;34285;-32
2022/09/24 09:43:26;;;;;;;9.80;4.60;;;;;;;;;;106711;1298;33647;-32
2022/09/24 09:46:01;;;;;;;9.60;4.80;;;;;;;;;;106683;1294;34665;-32
2022/09/24 09:48:36;;;;;;;8.50;4.40;;;;;;;;;;106774;1295;32522;-32
2022/09/24 09:51:06;;;;;;;8.10;4.10;;;;;;;;;;106893;1299;22532;-32
2022/09/24 09:53:35;;;;;;;7.60;3.80;;;;;;;;;;106899;1300;22521;-32
2022/09/24 09:56:06;;;;;;;7.70;4.10;;;;;;;;;;106816;1300;25413;-32
2022/09/24 09:58:36;;;;;;;7.90;4.20;;;;;;;;;;106903;1298;22529;-32
2022/09/24 10:01:07;;;;;;;7.00;4.00;;;;;;;;;;106811;1299;22577;-32
2022/09/24 10:03:46;;;;;;;7.00;3.90;;;;;;;;;;106926;1298;22772;-32
2022/09/24 10:06:24;;;;;;;7.00;3.80;;;;;;;;;;106943;1302;24148;-32
2022/09/24 10:08:53;;;;;;;6.90;3.70;;;;;;;;;;106774;1297;22549;-32
2022/09/24 10:11:22;;;;;;;6.50;3.60;;;;;;;;;;106877;1301;22609;-32
2022/09/24 10:14:02;;;;;;;6.20;3.80;;;;;;;;;;106911;1299;22598;-32
2022/09/24 10:16:37;;;;;;;6.40;3.70;;;;;;;;;;106798;1297;22554;-32
2022/09/24 10:19:14;;;;;;;6.30;3.70;;;;;;;;;;106992;1298;22542;-33
2022/09/24 10:21:43;;;;;;;6.90;3.50;;;;;;;;;;106923;1295;23076;-33
2022/09/24 10:24:16;;;;;;;6.60;3.60;;;;;;;;;;107052;1298;22529;-33
2022/09/24 10:26:45;;;;;;;6.30;3.20;;;;;;;;;;107039;1303;24205;-34
2022/09/24 10:32:05;;;;;;;5.90;3.60;;;;;;;;;;106919;1295;23250;-34
2022/09/24 10:34:34;;;;;;;6.80;3.50;;;;;;;;;;106922;1295;22542;-34
2022/09/24 10:37:04;;;;;;;5.30;3.10;;;;;;;;;;106876;1295;22575;-33
2022/09/24 10:39:33;;;;;;;5.70;2.90;;;;;;;;;;106805;1302;23697;-32
2022/09/24 10:42:04;;;;;;;5.60;3.00;;;;;;;;;;107064;1299;23627;-32
2022/09/24 10:44:35;;;;;;;5.50;3.00;;;;;;;;;;107042;1300;25163;-32
2022/09/24 10:47:13;;;;;;;4.70;2.80;;;;;;;;;;107068;1300;23035;-32
2022/09/24 10:49:50;;;;;;;5.90;3.00;;;;;;;;;;106737;1303;25338;-32
2022/09/24 10:52:25;;;;;;;5.00;2.90;;;;;;;;;;106879;1303;24136;-33
2022/09/24 10:54:58;;;;;;;6.10;3.10;;;;;;;;;;106923;1295;23982;-32
2022/09/24 10:57:30;;;;;;;6.40;2.90;;;;;;;;;;106898;1303;25882;-32
2022/09/24 10:59:58;;;;;;;;;;;;;;;;;;106782;1296;23116;-32
2022/09/24 11:02:50;;;;;;;6.10;3.10;;;;;;;;;;107044;1295;22540;-32
2022/09/24 11:05:21;;;;;;;4.90;2.50;;;;;;;;;;107048;1301;22557;-32
2022/09/24 11:07:59;;;;;;;4.80;2.40;;;;;;;;;;107040;1295;22498;-32
2022/09/24 11:10:38;;;;;;;4.90;2.70;;;;;;;;;;106996;1295;31762;-32
2022/09/24 11:13:14;;;;;;;5.90;2.50;;;;;;;;;;106903;1295;23351;-32
2022/09/24 11:15:52;;;;;;;5.40;2.60;;;;;;;;;;106878;1301;22551;-32
2022/09/24 11:18:31;;;;;;;5.20;2.80;;;;;;;;;;106859;1295;22556;-32
2022/09/24 11:21:03;;;;;;;4.50;2.50;;;;;;;;;;106915;1294;31284;-32
2022/09/24 11:23:51;;;;;;;5.00;2.70;;;;;;;;;;106924;1298;22546;-32
2022/09/24 11:26:26;;;;;;;4.80;2.60;;;;;;;;;;106888;1299;22611;-32
2022/09/24 11:29:10;;;;;;;4.50;2.50;;;;;;;;;;106901;1301;22573;-32
2022/09/24 11:31:41;;;;;;;5.30;2.40;;;;;;;;;;106923;1303;22610;-32
2022/09/24 11:34:18;;;;;;;4.80;2.40;;;;;;;;;;106936;1302;22692;-33
2022/09/24 11:36:57;;;;;;;5.30;2.60;;;;;;;;;;106893;1303;22598;-33
2022/09/24 11:39:33;;;;;;;4.40;2.60;;;;;;;;;;106869;1295;23840;-33
2022/09/24 11:42:08;;;;;;;4.80;2.20;;;;;;;;;;106985;1294;22531;-33
2022/09/24 11:45:03;;;;;;;5.30;2.40;;;;;;;;;;106954;1299;22514;-34
2022/09/24 11:47:40;;;;;;;5.00;2.20;;;;;;;;;;106943;1302;23017;-34
2022/09/24 11:50:17;;;;;;;4.30;2.20;;;;;;;;;;106886;1302;22556;-33
2022/09/24 11:52:48;;;;;;;4.40;2.20;;;;;;;;;;106923;1301;22569;-34
2022/09/24 11:55:19;;;;;;;4.50;2.40;;;;;;;;;;106904;1300;22558;-34
2022/09/24 11:57:51;;;;;;;5.00;2.40;;;;;;;;;;106906;1295;24014;-34
2022/09/24 12:00:21;;;;;;;4.50;2.10;;;;;;;;;;106931;1302;22793;-33
2022/09/24 12:02:52;;;;;;;4.00;2.10;;;;;;;;;;106972;1294;23073;-33
2022/09/24 12:05:24;;;;;;;4.60;2.10;;;;;;;;;;106936;1294;22543;-32
2022/09/24 12:07:56;;;;;;;4.10;2.20;;;;;;;;;;106898;1294;23188;-32
2022/09/24 12:10:28;;;;;;;4.50;2.20;;;;;;;;;;106891;1298;23041;-32
2022/09/24 12:13:03;;;;;;;4.30;2.50;;;;;;;;;;106870;1303;23080;-32
2022/09/24 12:15:39;;;;;;;4.70;2.20;;;;;;;;;;106943;1298;22492;-33
2022/09/24 12:18:12;;;;;;;4.40;2.30;;;;;;;;;;106923;1295;23285;-33
2022/09/24 12:20:44;;;;;;;4.10;1.90;;;;;;;;;;106929;1295;23070;-32
2022/09/24 12:23:16;;;;;;;4.10;2.10;;;;;;;;;;107018;1298;22660;-32
2022/09/24 12:25:46;;;;;;;5.70;2.70;;;;;;;;;;107025;1295;22525;-32
2022/09/24 12:32:53;;;;;;;6.20;2.80;;;;;;;;;;107008;1302;22678;-33
2022/09/24 12:33:57;;;;;;;7.50;5.00;;;;;;;;;;106457;1295;23381;-33
2022/09/24 12:36:34;;;;;;;7.30;4.70;;;;;;;;;;106860;1295;23163;-33
2022/09/24 12:39:04;;;;;;;8.80;7.80;;;;;;;;;;106887;1303;25431;-33
2022/09/24 12:41:35;;;;;;;11.20;10.10;;;;;;;;;;106927;1295;22520;-33
2022/09/24 12:44:11;;;;;;;18.40;16.70;;;;;;;;;;107036;1302;22578;-33
2022/09/24 12:46:43;;;;;;;21.00;18.90;;;;;;;;;;107010;1298;25428;-33
2022/09/24 12:49:18;;;;;;;24.90;22.40;;;;;;;;;;106996;1298;24190;-33
2022/09/24 12:51:47;;;;;;;29.00;26.30;;;;;;;;;;106905;1295;22555;-33
2022/09/24 12:54:23;;;;;;;32.10;28.80;;;;;;;;;;106888;1299;22534;-33
2022/09/24 12:56:52;;;;;;;28.60;25.90;;;;;;;;;;106869;1295;25198;-34
2022/09/24 12:59:25;;;;;;;28.50;25.70;;;;;;;;;;106875;1297;23717;-34
2022/09/24 13:01:55;;;;;;;25.50;22.90;;;;;;;;;;106807;1299;22617;-34
2022/09/24 13:04:29;;;;;;;24.50;22.10;;;;;;;;;;107031;1298;23739;-34
2022/09/24 13:06:58;;;;;;;23.80;21.40;;;;;;;;;;107031;1302;22571;-34
2022/09/24 13:09:34;;;;;;;24.60;22.10;;;;;;;;;;106965;1295;22636;-33
2022/09/24 13:12:05;;;;;;;23.50;21.20;;;;;;;;;;106873;1295;23671;-33
2022/09/24 13:14:35;;;;;;;24.50;22.00;;;;;;;;;;106845;1299;22570;-33
2022/09/24 13:17:06;;;;;;;23.00;20.70;;;;;;;;;;106839;1295;23177;-33
2022/09/24 13:19:37;;;;;;;22.80;20.50;;;;;;;;;;106847;1300;22541;-33
2022/09/24 13:22:17;;;;;;;22.20;20.00;;;;;;;;;;106885;1294;23168;-33
2022/09/24 13:24:48;;;;;;;21.20;19.20;;;;;;;;;;106934;1302;22625;-33
2022/09/24 13:27:22;;;;;;;20.40;18.50;;;;;;;;;;106948;1300;22518;-33
2022/09/24 13:30:02;;;;;;;20.40;18.30;;;;;;;;;;106953;1290;22586;-33
2022/09/24 13:32:36;;;;;;;19.90;17.90;;;;;;;;;;106995;1299;23030;-33
2022/09/24 13:35:10;;;;;;;19.70;17.60;;;;;;;;;;106929;1295;22554;-33
2022/09/24 13:37:44;;;;;;;19.80;17.80;;;;;;;;;;106890;1299;22542;-33
2022/09/24 13:40:11;;;;;;;;;;;;;;;;;;106917;1300;25368;-33
2022/09/24 13:42:45;;;;;;;19.10;17.20;;;;;;;;;;106858;1290;30117;-33
2022/09/24 13:45:18;;;;;;;18.70;16.80;;;;;;;;;;106918;1302;22573;-33
2022/09/24 13:47:50;;;;;;;20.00;17.90;;;;;;;;;;106940;1300;25208;-33
2022/09/24 13:50:22;;;;;;;19.00;17.10;;;;;;;;;;106958;1294;23855;-33
2022/09/24 13:52:54;;;;;;;19.30;17.40;;;;;;;;;;106943;1302;25337;-33
2022/09/24 13:55:29;;;;;;;18.90;17.00;;;;;;;;;;107001;1302;22532;-33
2022/09/24 13:57:59;;;;;;;19.00;17.00;;;;;;;;;;107034;1298;22609;-33
2022/09/24 14:00:30;;;;;;;18.40;16.50;;;;;;;;;;107008;1295;22651;-33
2022/09/24 14:03:00;;;;;;;17.90;16.10;;;;;;;;;;106900;1295;22551;-33
2022/09/24 14:05:35;;;;;;;18.30;16.50;;;;;;;;;;106898;1291;22604;-33
2022/09/24 14:08:06;;;;;;;17.60;15.80;;;;;;;;;;106890;1295;23300;-33
2022/09/24 14:10:35;;;;;;;18.20;16.50;;;;;;;;;;106874;1295;23778;-33
2022/09/24 14:13:14;;;;;;;17.70;15.90;;;;;;;;;;106897;1294;24030;-33
2022/09/24 14:15:51;;;;;;;17.00;15.30;;;;;;;;;;106781;1298;22550;-33
2022/09/24 14:18:21;;;;;;;17.40;15.70;;;;;;;;;;107025;1302;22544;-33
2022/09/24 14:20:54;;;;;;;16.80;15.20;;;;;;;;;;107021;1302;22560;-33
2022/09/24 14:23:24;;;;;;;17.00;15.30;;;;;;;;;;106890;1292;22569;-33
2022/09/24 14:25:54;;;;;;;16.80;15.20;;;;;;;;;;106854;1298;22532;-33
2022/09/24 14:28:24;;;;;;;16.90;15.20;;;;;;;;;;106877;1295;22553;-33
2022/09/24 14:30:54;;;;;;;16.80;15.20;;;;;;;;;;106836;1300;22729;-33
2022/09/24 14:33:28;;;;;;;15.90;14.30;;;;;;;;;;106916;1301;22600;-33
2022/09/24 14:35:59;;;;;;;16.00;14.50;;;;;;;;;;107043;1299;23866;-33
2022/09/24 14:38:29;;;;;;;16.40;14.80;;;;;;;;;;107026;1298;22513;-33
2022/09/24 14:41:01;;;;;;;16.40;14.80;;;;;;;;;;107034;1298;22596;-33
2022/09/24 14:43:34;;;;;;;15.60;14.00;;;;;;;;;;106922;1298;25254;-33
2022/09/24 14:46:05;;;;;;;16.00;14.30;;;;;;;;;;106876;1298;23167;-33
2022/09/24 14:48:35;;;;;;;16.90;15.20;;;;;;;;;;106888;1295;22565;-33
2022/09/24 14:51:05;;;;;;;16.40;14.70;;;;;;;;;;106889;1303;22583;-33
2022/09/24 14:53:34;;;;;;;16.70;15.00;;;;;;;;;;106871;1294;23261;-33
2022/09/24 14:56:20;;;;;;;17.70;15.30;;;;;;;;;;107017;1300;31643;-32
2022/09/24 14:58:49;;;;;;;15.90;14.00;;;;;;;;;;107029;1302;22757;-32
2022/09/24 15:01:20;;;;;;;15.60;13.60;;;;;;;;;;107019;1294;25176;-32
2022/09/24 15:03:49;;;;;;;16.30;13.60;;;;;;;;;;106764;1298;33137;-32